| time (UTC) | temp C | wind direction | speed KPH | gust KPH | rain 1hr cm | rain 24hr cm | rain mn cm | humidity % | barometer mb |
| 20260902190701 | 20 | 0.0 | 0.0 | 0.00 | 0.00 | 0.00 | 46 | 885.1 | |
| 20260902190635 | 19 | 0.0 | 0.0 | 0.00 | 0.00 | 0.00 | 46 | 885.1 | |
| 20260902183325 | 19 | 0.0 | 0.0 | 0.00 | 0.00 | 0.00 | 46 | 885.1 | |
| 20260902183301 | 19 | 0.0 | 0.0 | 0.00 | 0.00 | 0.00 | 46 | 885.1 | |
| 20260902183234 | 20 | 0.0 | 0.0 | 0.00 | 0.00 | 0.00 | 46 | 885.1 | |
| 20260902175800 | 20 | 0.0 | 0.0 | 0.00 | 0.00 | 0.00 | 46 | 885.1 | |
| 20260902175733 | 19 | 0.0 | 0.0 | 0.00 | 0.00 | 0.00 | 47 | 884.8 | |
| 20260902172500 | 19 | 0.0 | 0.0 | 0.00 | 0.00 | 0.00 | 47 | 884.8 | |
| 20260902172423 | 20 | 0.0 | 0.0 | 0.00 | 0.00 | 0.00 | 47 | 884.8 | |
| 20260902172333 | 20 | 0.0 | 0.0 | 0.00 | 0.00 | 0.00 | 47 | 884.8 | |
| 20260902165100 | 20 | 0.0 | 0.0 | 0.00 | 0.00 | 0.00 | 47 | 884.8 | |
| 20260902165023 | 25 | 0.0 | 0.0 | 0.00 | 0.00 | 0.00 | 45 | 884.8 | |
| 20260902164932 | 25 | 0.0 | 0.0 | 0.00 | 0.00 | 0.00 | 45 | 884.8 | |
| 20260902161701 | 25 | 0.0 | 0.0 | 0.00 | 0.00 | 0.00 | 45 | 884.8 | |
| 20260902161622 | 20 | 0.0 | 0.0 | 0.00 | 0.00 | 0.00 | 50 | 886.6 | |
| 20260902161532 | 20 | 0.0 | 0.0 | 0.00 | 0.00 | 0.00 | 50 | 886.6 | |
| 20260902161132 | 20 | 0.0 | 0.0 | 0.00 | 0.00 | 0.00 | 50 | 886.6 | |
| 20260902154255 | 27 | 0.0 | 0.0 | 0.00 | 0.00 | 0.00 | 45 | 884.7 | |
| 20260902154217 | 28 | 0.0 | 0.0 | 0.00 | 0.00 | 0.00 | 44 | 884.8 | |
| 20260902154129 | 28 | 0.0 | 0.0 | 0.00 | 0.00 | 0.00 | 44 | 884.8 | |
| 20260902150954 | 28 | 0.0 | 0.0 | 0.00 | 0.00 | 0.00 | 44 | 884.8 | |
| 20260902150915 | 29 | 0.0 | 0.0 | 0.00 | 0.00 | 0.00 | 43 | 884.9 | |
| 20260902150828 | 29 | 0.0 | 0.0 | 0.00 | 0.00 | 0.00 | 43 | 884.9 | |
| 20260902143653 | 29 | 0.0 | 0.0 | 0.00 | 0.00 | 0.00 | 43 | 884.9 | |
| 20260902143615 | 30 | 0.0 | 0.0 | 0.00 | 0.00 | 0.00 | 45 | 885.0 | |
| 20260902143527 | 30 | 0.0 | 0.0 | 0.00 | 0.00 | 0.00 | 45 | 885.0 | |
| 20260902140353 | 30 | 0.0 | 0.0 | 0.00 | 0.00 | 0.00 | 45 | 885.0 | |
| 20260902140314 | 32 | 0.0 | 0.0 | 0.00 | 0.00 | 0.00 | 45 | 885.3 | |
| 20260902140226 | 32 | 0.0 | 0.0 | 0.00 | 0.00 | 0.00 | 45 | 885.3 | |
| 20260902133053 | 32 | 0.0 | 0.0 | 0.00 | 0.00 | 0.00 | 45 | 885.3 | |
| 20260902132914 | 32 | 0.0 | 0.0 | 0.00 | 0.00 | 0.00 | 45 | 885.5 | |
| 20260902132826 | 32 | 0.0 | 0.0 | 0.00 | 0.00 | 0.00 | 45 | 885.5 | |
| 20260902125452 | 32 | 0.0 | 0.0 | 0.00 | 0.00 | 0.00 | 45 | 885.5 | |
| 20260902125314 | 31 | 0.0 | 0.0 | 0.00 | 0.00 | 0.00 | 46 | 885.6 | |
| 20260902125226 | 31 | 0.0 | 0.0 | 0.00 | 0.00 | 0.00 | 46 | 885.6 | |
| 20260902121852 | 31 | 0.0 | 0.0 | 0.00 | 0.00 | 0.00 | 46 | 885.6 | |
| 20260902121713 | 31 | 0.0 | 0.0 | 0.00 | 0.00 | 0.00 | 46 | 886.0 | |
| 20260902121625 | 31 | 0.0 | 0.0 | 0.00 | 0.00 | 0.00 | 46 | 886.0 | |
| 20260902114351 | 31 | 0.0 | 0.0 | 0.00 | 0.00 | 0.00 | 46 | 886.0 | |
| 20260902114213 | 30 | 0.0 | 0.0 | 0.00 | 0.00 | 0.00 | 47 | 886.2 | |
| 20260902114125 | 30 | 0.0 | 0.0 | 0.00 | 0.00 | 0.00 | 47 | 886.2 | |
| 20260902110851 | 30 | 0.0 | 0.0 | 0.00 | 0.00 | 0.00 | 47 | 886.2 | |
| 20260902110712 | 28 | 0.0 | 0.0 | 0.00 | 0.00 | 0.00 | 47 | 886.4 | |
| 20260902110624 | 28 | 0.0 | 0.0 | 0.00 | 0.00 | 0.00 | 47 | 886.4 | |
| 20260902103350 | 28 | 0.0 | 0.0 | 0.00 | 0.00 | 0.00 | 47 | 886.4 | |
| 20260902103212 | 26 | 0.0 | 0.0 | 0.00 | 0.00 | 0.00 | 46 | 886.5 | |
| 20260902103124 | 26 | 0.0 | 0.0 | 0.00 | 0.00 | 0.00 | 46 | 886.5 | |
| 20260902095847 | 26 | 0.0 | 0.0 | 0.00 | 0.00 | 0.00 | 46 | 886.5 | |
| 20260902095750 | 26 | 0.0 | 0.0 | 0.00 | 0.00 | 0.00 | 46 | 886.5 | |
| 20260902095611 | 23 | 0.0 | 0.0 | 0.00 | 0.00 | 0.00 | 47 | 886.7 | |
| 20260902095523 | 23 | 0.0 | 0.0 | 0.00 | 0.00 | 0.00 | 47 | 886.7 | |
| 20260902092049 | 23 | 0.0 | 0.0 | 0.00 | 0.00 | 0.00 | 47 | 886.7 | |
| 20260902091911 | 21 | 0.0 | 0.0 | 0.00 | 0.00 | 0.00 | 49 | 886.5 | |
| 20260902091822 | 21 | 0.0 | 0.0 | 0.00 | 0.00 | 0.00 | 49 | 886.5 | |
| 20260902091205 | 21 | 0.0 | 0.0 | 0.00 | 0.00 | 0.00 | 49 | 886.5 | |
| 20260902090601 | 21 | 0.0 | 0.0 | 0.00 | 0.00 | 0.00 | 49 | 886.5 | |
| 20260902084548 | 21 | 0.0 | 0.0 | 0.00 | 0.00 | 0.00 | 49 | 886.5 | |
| 20260902084411 | 21 | 0.0 | 0.0 | 0.00 | 0.00 | 0.00 | 49 | 886.5 | |
| 20260902084322 | 21 | 0.0 | 0.0 | 0.00 | 0.00 | 0.00 | 49 | 886.5 | |
| 20260902081048 | 21 | 0.0 | 0.0 | 0.00 | 0.00 | 0.00 | 49 | 886.5 | |
| 20260902081010 | 20 | 0.0 | 0.0 | 0.00 | 0.00 | 0.00 | 50 | 886.6 | |
| 20260902080822 | 20 | 0.0 | 0.0 | 0.00 | 0.00 | 0.00 | 50 | 886.6 | |
| 20260902073551 | 20 | 0.0 | 0.0 | 0.00 | 0.00 | 0.00 | 50 | 886.6 | |
| 20260902073512 | 20 | 0.0 | 0.0 | 0.00 | 0.00 | 0.00 | 51 | 886.3 | |
| 20260902073321 | 20 | 0.0 | 0.0 | 0.00 | 0.00 | 0.00 | 51 | 886.3 | |
| 20260902065942 | 20 | 0.0 | 0.0 | 0.00 | 0.00 | 0.00 | 51 | 886.3 | |
| 20260902065904 | 20 | 0.0 | 0.0 | 0.00 | 0.00 | 0.00 | 50 | 885.9 | |
| 20260902065709 | 20 | 0.0 | 0.0 | 0.00 | 0.00 | 0.00 | 50 | 885.9 | |
| 20260902062240 | 20 | 0.0 | 0.0 | 0.00 | 0.00 | 0.00 | 50 | 885.9 | |
| 20260902062204 | 18 | 0.0 | 0.0 | 0.00 | 0.00 | 0.00 | 49 | 885.9 | |
| 20260902062009 | 18 | 0.0 | 0.0 | 0.00 | 0.00 | 0.00 | 49 | 885.9 | |
| 20260902054640 | 18 | 0.0 | 0.0 | 0.00 | 0.00 | 0.00 | 49 | 885.9 | |
| 20260902054603 | 17 | 0.0 | 0.0 | 0.00 | 0.00 | 0.00 | 49 | 885.9 | |
| 20260902054408 | 17 | 0.0 | 0.0 | 0.00 | 0.00 | 0.00 | 49 | 885.9 | |
| 20260902051141 | 17 | 0.0 | 0.0 | 0.00 | 0.00 | 0.00 | 49 | 885.9 | |
| 20260902051100 | 23 | 0.0 | 0.0 | 0.00 | 0.00 | 0.00 | 48 | 884.4 | |
| 20260902050808 | 23 | 0.0 | 0.0 | 0.00 | 0.00 | 0.00 | 48 | 884.4 | |
| 20260902044627 | 23 | 0.0 | 0.0 | 0.00 | 0.00 | 0.00 | 48 | 884.4 | |
| 20260902043917 | 23 | 0.0 | 0.0 | 0.00 | 0.00 | 0.00 | 48 | 884.4 | |
| 20260902043639 | 17 | 0.0 | 0.0 | 0.00 | 0.00 | 0.00 | 49 | 885.7 | |
| 20260902043600 | 16 | 0.0 | 0.0 | 0.00 | 0.00 | 0.00 | 49 | 885.7 | |
| 20260902043308 | 16 | 0.0 | 0.0 | 0.00 | 0.00 | 0.00 | 49 | 885.7 | |
| 20260902040139 | 16 | 0.0 | 0.0 | 0.00 | 0.00 | 0.00 | 49 | 885.7 | |
| 20260902040100 | 16 | 0.0 | 0.0 | 0.00 | 0.00 | 0.00 | 49 | 885.8 | |
| 20260902035807 | 16 | 0.0 | 0.0 | 0.00 | 0.00 | 0.00 | 49 | 885.8 | |
| 20260902032538 | 16 | 0.0 | 0.0 | 0.00 | 0.00 | 0.00 | 49 | 885.8 | |
| 20260902032458 | 17 | 0.0 | 0.0 | 0.00 | 0.00 | 0.00 | 48 | 885.8 | |
| 20260902032207 | 17 | 0.0 | 0.0 | 0.00 | 0.00 | 0.00 | 48 | 885.8 | |
| 20260902025038 | 17 | 0.0 | 0.0 | 0.00 | 0.00 | 0.00 | 48 | 885.8 | |
| 20260902024958 | 17 | 0.0 | 0.0 | 0.00 | 0.00 | 0.00 | 49 | 885.7 | |
| 20260902024707 | 17 | 0.0 | 0.0 | 0.00 | 0.00 | 0.00 | 49 | 885.7 | |
| 20260902023812 | 17 | 0.0 | 0.0 | 0.00 | 0.00 | 0.00 | 49 | 885.7 | |
| 20260902021640 | 17 | 0.0 | 0.0 | 0.00 | 0.00 | 0.00 | 49 | 885.7 | |
| 20260902021558 | 17 | 0.0 | 0.0 | 0.00 | 0.00 | 0.00 | 48 | 885.9 | |
| 20260902021408 | 17 | 0.0 | 0.0 | 0.00 | 0.00 | 0.00 | 48 | 885.9 | |
| 20260902014337 | 17 | 0.0 | 0.0 | 0.00 | 0.00 | 0.00 | 48 | 885.9 | |
| 20260902014256 | 17 | 0.0 | 0.0 | 0.00 | 0.00 | 0.00 | 49 | 885.8 | |
| 20260902014107 | 17 | 0.0 | 0.0 | 0.00 | 0.00 | 0.00 | 49 | 885.8 | |
| 20260902010936 | 17 | 0.0 | 0.0 | 0.00 | 0.00 | 0.00 | 49 | 885.8 | |
| 20260902010858 | 17 | 0.0 | 0.0 | 0.00 | 0.00 | 0.00 | 48 | 886.0 | |
| 20260902010706 | 17 | 0.0 | 0.0 | 0.00 | 0.00 | 0.00 | 48 | 886.0 | |
| 20260902003436 | 17 | 0.0 | 0.0 | 0.00 | 0.00 | 0.00 | 48 | 886.0 | |
| 20260902003355 | 17 | 0.0 | 0.0 | 0.00 | 0.00 | 0.00 | 48 | 886.0 | |
| 20260902003205 | 17 | 0.0 | 0.0 | 0.00 | 0.00 | 0.00 | 48 | 886.0 | |
| 20260901235936 | 17 | 0.0 | 0.0 | 0.00 | 0.00 | 0.00 | 48 | 886.0 | |
| 20260901235854 | 17 | 0.0 | 0.0 | 0.00 | 0.00 | 0.00 | 48 | 886.0 | |
| 20260901235705 | 17 | 0.0 | 0.0 | 0.00 | 0.00 | 0.00 | 48 | 886.0 | |
| 20260901232535 | 17 | 0.0 | 0.0 | 0.00 | 0.00 | 0.00 | 48 | 886.0 | |
| 20260901232454 | 17 | 0.0 | 0.0 | 0.00 | 0.00 | 0.00 | 48 | 886.0 | |
| 20260901232306 | 17 | 0.0 | 0.0 | 0.00 | 0.00 | 0.00 | 48 | 886.0 | |
| 20260901225035 | 17 | 0.0 | 0.0 | 0.00 | 0.00 | 0.00 | 48 | 886.0 | |
| 20260901224953 | 17 | 0.0 | 0.0 | 0.00 | 0.00 | 0.00 | 48 | 886.1 | |
| 20260901224806 | 17 | 0.0 | 0.0 | 0.00 | 0.00 | 0.00 | 48 | 886.1 | |
| 20260901221535 | 17 | 0.0 | 0.0 | 0.00 | 0.00 | 0.00 | 48 | 886.1 | |
| 20260901221453 | 17 | 0.0 | 0.0 | 0.00 | 0.00 | 0.00 | 48 | 886.2 | |
| 20260901221304 | 17 | 0.0 | 0.0 | 0.00 | 0.00 | 0.00 | 48 | 886.2 | |
| 20260901213953 | 17 | 0.0 | 0.0 | 0.00 | 0.00 | 0.00 | 48 | 886.2 | |
| 20260901213933 | 17 | 0.0 | 0.0 | 0.00 | 0.00 | 0.00 | 48 | 886.2 | |
| 20260901213703 | 18 | 0.0 | 0.0 | 0.00 | 0.00 | 0.00 | 48 | 886.2 | |
| 20260901210433 | 18 | 0.0 | 0.0 | 0.00 | 0.00 | 0.00 | 48 | 886.2 | |
| 20260901210203 | 18 | 0.0 | 0.0 | 0.00 | 0.00 | 0.00 | 48 | 886.1 | |
| 20260901203032 | 18 | 0.0 | 0.0 | 0.00 | 0.00 | 0.00 | 48 | 886.1 | |
| 20260901202802 | 19 | 0.0 | 0.0 | 0.00 | 0.00 | 0.00 | 48 | 885.8 | |
| 20260901195750 | 19 | 0.0 | 0.0 | 0.00 | 0.00 | 0.00 | 48 | 885.8 | |
| 20260901195732 | 19 | 0.0 | 0.0 | 0.00 | 0.00 | 0.00 | 48 | 885.8 | |
| 20260901195502 | 20 | 0.0 | 0.0 | 0.00 | 0.00 | 0.00 | 48 | 885.9 | |
| 20260901192530 | 20 | 0.0 | 0.0 | 0.00 | 0.00 | 0.00 | 48 | 885.9 | |
| 20260901192203 | 20 | 0.0 | 0.0 | 0.00 | 0.00 | 0.00 | 47 | 885.9 | |
| 20260901192030 | 20 | 0.0 | 0.0 | 0.00 | 0.00 | 0.00 | 47 | 885.9 |